sensor_id;sensor_type;location;lat;lon;timestamp;P1;durP1;ratioP1;P2;durP2;ratioP2
56481;SDS011;42384;45.186;19.958;2023-06-22T00:01:53;16.63;;;10.43;;
56481;SDS011;42384;45.186;19.958;2023-06-22T00:04:19;16.45;;;11.95;;
56481;SDS011;42384;45.186;19.958;2023-06-22T00:06:45;17.40;;;14.20;;
56481;SDS011;42384;45.186;19.958;2023-06-22T00:09:11;15.07;;;13.18;;
56481;SDS011;42384;45.186;19.958;2023-06-22T00:11:37;16.80;;;12.45;;
56481;SDS011;42384;45.186;19.958;2023-06-22T00:14:04;16.65;;;11.68;;
56481;SDS011;42384;45.186;19.958;2023-06-22T00:16:34;15.88;;;11.55;;
56481;SDS011;42384;45.186;19.958;2023-06-22T00:19:00;20.02;;;10.88;;
56481;SDS011;42384;45.186;19.958;2023-06-22T00:21:27;13.45;;;11.40;;
56481;SDS011;42384;45.186;19.958;2023-06-22T00:23:53;12.93;;;10.65;;
56481;SDS011;42384;45.186;19.958;2023-06-22T00:26:20;16.70;;;12.00;;
56481;SDS011;42384;45.186;19.958;2023-06-22T00:28:47;14.27;;;10.85;;
56481;SDS011;42384;45.186;19.958;2023-06-22T00:31:13;13.50;;;9.65;;
56481;SDS011;42384;45.186;19.958;2023-06-22T00:33:39;12.20;;;10.93;;
56481;SDS011;42384;45.186;19.958;2023-06-22T00:36:06;12.50;;;10.73;;
56481;SDS011;42384;45.186;19.958;2023-06-22T00:38:33;17.50;;;10.15;;
56481;SDS011;42384;45.186;19.958;2023-06-22T00:40:59;13.25;;;11.18;;
56481;SDS011;42384;45.186;19.958;2023-06-22T00:43:25;16.20;;;10.27;;
56481;SDS011;42384;45.186;19.958;2023-06-22T00:45:51;13.00;;;10.15;;
56481;SDS011;42384;45.186;19.958;2023-06-22T00:48:17;14.02;;;12.25;;
56481;SDS011;42384;45.186;19.958;2023-06-22T00:50:44;11.88;;;10.77;;
56481;SDS011;42384;45.186;19.958;2023-06-22T00:53:10;13.88;;;11.93;;
56481;SDS011;42384;45.186;19.958;2023-06-22T00:55:37;16.40;;;11.82;;
56481;SDS011;42384;45.186;19.958;2023-06-22T00:58:06;12.48;;;11.18;;
56481;SDS011;42384;45.186;19.958;2023-06-22T01:00:37;14.10;;;11.32;;
56481;SDS011;42384;45.186;19.958;2023-06-22T01:03:04;15.48;;;11.45;;
56481;SDS011;42384;45.186;19.958;2023-06-22T01:05:34;14.82;;;10.43;;
56481;SDS011;42384;45.186;19.958;2023-06-22T01:12:53;13.60;;;11.23;;
56481;SDS011;42384;45.186;19.958;2023-06-22T01:17:53;13.15;;;11.77;;
56481;SDS011;42384;45.186;19.958;2023-06-22T01:20:21;24.17;;;19.83;;
56481;SDS011;42384;45.186;19.958;2023-06-22T01:25:31;13.27;;;11.95;;
56481;SDS011;42384;45.186;19.958;2023-06-22T01:28:11;27.83;;;24.05;;
56481;SDS011;42384;45.186;19.958;2023-06-22T01:30:41;32.80;;;26.27;;
56481;SDS011;42384;45.186;19.958;2023-06-22T01:33:07;20.20;;;17.05;;
56481;SDS011;42384;45.186;19.958;2023-06-22T01:35:35;32.15;;;28.63;;
56481;SDS011;42384;45.186;19.958;2023-06-22T01:38:02;15.65;;;12.57;;
56481;SDS011;42384;45.186;19.958;2023-06-22T01:40:29;14.60;;;12.52;;
56481;SDS011;42384;45.186;19.958;2023-06-22T01:42:55;19.25;;;16.35;;
56481;SDS011;42384;45.186;19.958;2023-06-22T01:45:22;13.70;;;12.30;;
56481;SDS011;42384;45.186;19.958;2023-06-22T01:47:48;15.80;;;12.82;;
56481;SDS011;42384;45.186;19.958;2023-06-22T01:50:15;15.98;;;12.85;;
56481;SDS011;42384;45.186;19.958;2023-06-22T01:52:41;14.23;;;12.27;;
56481;SDS011;42384;45.186;19.958;2023-06-22T01:55:07;17.83;;;14.82;;
56481;SDS011;42384;45.186;19.958;2023-06-22T02:00:01;18.33;;;14.30;;
56481;SDS011;42384;45.186;19.958;2023-06-22T02:02:39;12.88;;;11.60;;
56481;SDS011;42384;45.186;19.958;2023-06-22T02:05:10;13.88;;;12.45;;
56481;SDS011;42384;45.186;19.958;2023-06-22T02:07:39;14.82;;;12.63;;
56481;SDS011;42384;45.186;19.958;2023-06-22T02:10:07;14.07;;;12.68;;
56481;SDS011;42384;45.186;19.958;2023-06-22T02:12:37;18.75;;;16.38;;
56481;SDS011;42384;45.186;19.958;2023-06-22T02:15:04;16.10;;;13.27;;
56481;SDS011;42384;45.186;19.958;2023-06-22T02:17:31;13.75;;;11.68;;
56481;SDS011;42384;45.186;19.958;2023-06-22T02:19:58;12.88;;;11.57;;
56481;SDS011;42384;45.186;19.958;2023-06-22T02:22:25;13.60;;;12.30;;
56481;SDS011;42384;45.186;19.958;2023-06-22T02:24:51;13.63;;;12.27;;
56481;SDS011;42384;45.186;19.958;2023-06-22T02:27:18;15.25;;;13.38;;
56481;SDS011;42384;45.186;19.958;2023-06-22T02:29:44;13.57;;;12.18;;
56481;SDS011;42384;45.186;19.958;2023-06-22T02:32:10;14.95;;;13.45;;
56481;SDS011;42384;45.186;19.958;2023-06-22T02:34:36;22.30;;;15.48;;
56481;SDS011;42384;45.186;19.958;2023-06-22T02:37:03;22.02;;;15.95;;
56481;SDS011;42384;45.186;19.958;2023-06-22T02:39:30;19.23;;;17.17;;
56481;SDS011;42384;45.186;19.958;2023-06-22T02:41:56;20.48;;;17.40;;
56481;SDS011;42384;45.186;19.958;2023-06-22T02:44:22;22.25;;;18.23;;
56481;SDS011;42384;45.186;19.958;2023-06-22T02:46:49;18.95;;;16.35;;
56481;SDS011;42384;45.186;19.958;2023-06-22T02:49:15;20.77;;;16.42;;
56481;SDS011;42384;45.186;19.958;2023-06-22T02:51:46;21.50;;;15.43;;
56481;SDS011;42384;45.186;19.958;2023-06-22T02:54:12;18.77;;;16.85;;
56481;SDS011;42384;45.186;19.958;2023-06-22T02:56:39;21.80;;;15.43;;
56481;SDS011;42384;45.186;19.958;2023-06-22T02:59:06;16.08;;;13.95;;
56481;SDS011;42384;45.186;19.958;2023-06-22T03:04:08;17.73;;;14.73;;
56481;SDS011;42384;45.186;19.958;2023-06-22T03:06:35;19.60;;;13.32;;
56481;SDS011;42384;45.186;19.958;2023-06-22T03:09:02;20.42;;;13.70;;
56481;SDS011;42384;45.186;19.958;2023-06-22T03:11:30;18.23;;;13.45;;
56481;SDS011;42384;45.186;19.958;2023-06-22T03:13:56;14.43;;;12.88;;
56481;SDS011;42384;45.186;19.958;2023-06-22T03:16:22;16.05;;;11.85;;
56481;SDS011;42384;45.186;19.958;2023-06-22T03:18:49;16.45;;;12.93;;
56481;SDS011;42384;45.186;19.958;2023-06-22T03:21:15;17.38;;;12.23;;
56481;SDS011;42384;45.186;19.958;2023-06-22T03:23:42;15.50;;;12.45;;
56481;SDS011;42384;45.186;19.958;2023-06-22T03:26:09;17.65;;;11.60;;
56481;SDS011;42384;45.186;19.958;2023-06-22T03:28:36;14.90;;;13.10;;
56481;SDS011;42384;45.186;19.958;2023-06-22T03:31:03;18.77;;;12.60;;
56481;SDS011;42384;45.186;19.958;2023-06-22T03:33:31;17.65;;;11.27;;
56481;SDS011;42384;45.186;19.958;2023-06-22T03:35:58;15.48;;;11.63;;
56481;SDS011;42384;45.186;19.958;2023-06-22T03:38:24;16.15;;;11.23;;
56481;SDS011;42384;45.186;19.958;2023-06-22T03:40:50;12.02;;;10.73;;
56481;SDS011;42384;45.186;19.958;2023-06-22T03:43:16;16.00;;;11.20;;
56481;SDS011;42384;45.186;19.958;2023-06-22T03:45:43;15.40;;;11.00;;
56481;SDS011;42384;45.186;19.958;2023-06-22T03:48:11;15.55;;;11.18;;
56481;SDS011;42384;45.186;19.958;2023-06-22T03:50:37;15.02;;;10.40;;
56481;SDS011;42384;45.186;19.958;2023-06-22T03:53:03;16.38;;;10.98;;
56481;SDS011;42384;45.186;19.958;2023-06-22T03:55:29;15.15;;;11.20;;
56481;SDS011;42384;45.186;19.958;2023-06-22T03:57:56;15.20;;;11.13;;
56481;SDS011;42384;45.186;19.958;2023-06-22T04:00:22;13.02;;;10.30;;
56481;SDS011;42384;45.186;19.958;2023-06-22T04:02:49;11.88;;;10.20;;
56481;SDS011;42384;45.186;19.958;2023-06-22T04:07:44;13.15;;;10.15;;
56481;SDS011;42384;45.186;19.958;2023-06-22T04:10:10;14.45;;;11.10;;
56481;SDS011;42384;45.186;19.958;2023-06-22T04:12:36;12.30;;;10.30;;
56481;SDS011;42384;45.186;19.958;2023-06-22T04:15:03;13.85;;;10.18;;
56481;SDS011;42384;45.186;19.958;2023-06-22T04:19:55;14.35;;;10.50;;
56481;SDS011;42384;45.186;19.958;2023-06-22T04:22:21;12.60;;;10.13;;
56481;SDS011;42384;45.186;19.958;2023-06-22T04:24:48;15.65;;;10.02;;
56481;SDS011;42384;45.186;19.958;2023-06-22T04:27:18;13.10;;;10.20;;
56481;SDS011;42384;45.186;19.958;2023-06-22T04:29:45;13.48;;;10.85;;
56481;SDS011;42384;45.186;19.958;2023-06-22T04:32:16;11.98;;;10.68;;
56481;SDS011;42384;45.186;19.958;2023-06-22T04:34:43;12.25;;;10.32;;
56481;SDS011;42384;45.186;19.958;2023-06-22T04:39:41;13.38;;;10.63;;
56481;SDS011;42384;45.186;19.958;2023-06-22T04:42:08;18.05;;;12.07;;
56481;SDS011;42384;45.186;19.958;2023-06-22T04:44:34;15.38;;;11.35;;
56481;SDS011;42384;45.186;19.958;2023-06-22T04:47:01;17.38;;;10.93;;
56481;SDS011;42384;45.186;19.958;2023-06-22T04:49:34;12.95;;;11.07;;
56481;SDS011;42384;45.186;19.958;2023-06-22T04:52:02;12.77;;;10.43;;
56481;SDS011;42384;45.186;19.958;2023-06-22T04:54:29;15.90;;;11.85;;
56481;SDS011;42384;45.186;19.958;2023-06-22T04:57:01;14.23;;;11.18;;
56481;SDS011;42384;45.186;19.958;2023-06-22T04:59:28;14.38;;;10.85;;
56481;SDS011;42384;45.186;19.958;2023-06-22T05:01:55;16.63;;;10.52;;
56481;SDS011;42384;45.186;19.958;2023-06-22T05:04:22;21.05;;;12.45;;
56481;SDS011;42384;45.186;19.958;2023-06-22T05:06:49;16.55;;;12.10;;
56481;SDS011;42384;45.186;19.958;2023-06-22T05:09:15;22.45;;;12.00;;
56481;SDS011;42384;45.186;19.958;2023-06-22T05:11:42;18.77;;;12.25;;
56481;SDS011;42384;45.186;19.958;2023-06-22T05:16:35;21.27;;;12.70;;
56481;SDS011;42384;45.186;19.958;2023-06-22T05:19:02;16.17;;;14.10;;
56481;SDS011;42384;45.186;19.958;2023-06-22T05:21:29;13.65;;;11.70;;
56481;SDS011;42384;45.186;19.958;2023-06-22T05:23:56;15.77;;;11.55;;
56481;SDS011;42384;45.186;19.958;2023-06-22T05:26:27;12.82;;;11.15;;
56481;SDS011;42384;45.186;19.958;2023-06-22T05:28:54;11.18;;;9.93;;
56481;SDS011;42384;45.186;19.958;2023-06-22T05:31:20;16.90;;;10.90;;
56481;SDS011;42384;45.186;19.958;2023-06-22T05:36:13;17.15;;;11.68;;
56481;SDS011;42384;45.186;19.958;2023-06-22T05:38:40;30.08;;;13.63;;
56481;SDS011;42384;45.186;19.958;2023-06-22T05:41:06;24.80;;;12.48;;
56481;SDS011;42384;45.186;19.958;2023-06-22T05:43:32;29.88;;;12.80;;
56481;SDS011;42384;45.186;19.958;2023-06-22T05:48:25;30.25;;;13.07;;
56481;SDS011;42384;45.186;19.958;2023-06-22T05:53:17;19.83;;;10.65;;
56481;SDS011;42384;45.186;19.958;2023-06-22T05:55:44;18.05;;;10.73;;
56481;SDS011;42384;45.186;19.958;2023-06-22T05:58:10;20.55;;;11.60;;
56481;SDS011;42384;45.186;19.958;2023-06-22T06:00:36;19.67;;;10.88;;
56481;SDS011;42384;45.186;19.958;2023-06-22T06:03:02;23.23;;;11.95;;
56481;SDS011;42384;45.186;19.958;2023-06-22T06:07:55;17.75;;;11.23;;
56481;SDS011;42384;45.186;19.958;2023-06-22T06:10:21;13.80;;;10.00;;
56481;SDS011;42384;45.186;19.958;2023-06-22T06:12:47;15.68;;;10.60;;
56481;SDS011;42384;45.186;19.958;2023-06-22T06:15:14;16.15;;;11.43;;
56481;SDS011;42384;45.186;19.958;2023-06-22T06:17:49;14.25;;;10.88;;
56481;SDS011;42384;45.186;19.958;2023-06-22T06:20:19;21.73;;;11.63;;
56481;SDS011;42384;45.186;19.958;2023-06-22T06:22:46;14.95;;;10.70;;
56481;SDS011;42384;45.186;19.958;2023-06-22T06:25:12;15.18;;;10.13;;
56481;SDS011;42384;45.186;19.958;2023-06-22T06:27:42;14.88;;;11.30;;
56481;SDS011;42384;45.186;19.958;2023-06-22T06:30:09;15.07;;;11.02;;
56481;SDS011;42384;45.186;19.958;2023-06-22T06:32:35;11.98;;;10.80;;
56481;SDS011;42384;45.186;19.958;2023-06-22T06:35:03;15.15;;;10.80;;
56481;SDS011;42384;45.186;19.958;2023-06-22T06:37:29;11.55;;;10.40;;
56481;SDS011;42384;45.186;19.958;2023-06-22T06:39:55;14.27;;;10.27;;
56481;SDS011;42384;45.186;19.958;2023-06-22T06:42:22;14.40;;;10.73;;
56481;SDS011;42384;45.186;19.958;2023-06-22T06:44:49;12.23;;;10.93;;
56481;SDS011;42384;45.186;19.958;2023-06-22T06:47:16;16.67;;;11.00;;
56481;SDS011;42384;45.186;19.958;2023-06-22T06:49:42;16.27;;;10.75;;
56481;SDS011;42384;45.186;19.958;2023-06-22T06:52:08;12.73;;;10.98;;
56481;SDS011;42384;45.186;19.958;2023-06-22T06:54:34;12.63;;;11.32;;
56481;SDS011;42384;45.186;19.958;2023-06-22T06:57:01;15.20;;;11.70;;
56481;SDS011;42384;45.186;19.958;2023-06-22T06:59:28;18.63;;;11.48;;
56481;SDS011;42384;45.186;19.958;2023-06-22T07:01:55;21.45;;;11.15;;
56481;SDS011;42384;45.186;19.958;2023-06-22T07:04:21;14.98;;;11.68;;
56481;SDS011;42384;45.186;19.958;2023-06-22T07:06:48;18.73;;;10.75;;
56481;SDS011;42384;45.186;19.958;2023-06-22T07:09:14;15.05;;;10.65;;
56481;SDS011;42384;45.186;19.958;2023-06-22T07:11:40;14.23;;;10.48;;
56481;SDS011;42384;45.186;19.958;2023-06-22T07:14:06;13.13;;;10.75;;
56481;SDS011;42384;45.186;19.958;2023-06-22T07:16:33;12.98;;;10.45;;
56481;SDS011;42384;45.186;19.958;2023-06-22T07:18:59;12.48;;;10.55;;
56481;SDS011;42384;45.186;19.958;2023-06-22T07:21:25;11.98;;;10.32;;
56481;SDS011;42384;45.186;19.958;2023-06-22T07:23:51;11.43;;;10.43;;
56481;SDS011;42384;45.186;19.958;2023-06-22T07:26:19;15.00;;;10.77;;
56481;SDS011;42384;45.186;19.958;2023-06-22T07:28:45;11.60;;;10.48;;
56481;SDS011;42384;45.186;19.958;2023-06-22T07:31:11;13.23;;;10.38;;
56481;SDS011;42384;45.186;19.958;2023-06-22T07:33:37;14.50;;;11.38;;
56481;SDS011;42384;45.186;19.958;2023-06-22T07:36:04;17.17;;;12.27;;
56481;SDS011;42384;45.186;19.958;2023-06-22T07:38:33;13.30;;;11.68;;
56481;SDS011;42384;45.186;19.958;2023-06-22T07:41:02;13.50;;;11.07;;
56481;SDS011;42384;45.186;19.958;2023-06-22T07:43:30;13.43;;;11.90;;
56481;SDS011;42384;45.186;19.958;2023-06-22T07:45:58;16.67;;;11.55;;
56481;SDS011;42384;45.186;19.958;2023-06-22T07:48:24;13.27;;;11.82;;
56481;SDS011;42384;45.186;19.958;2023-06-22T07:50:51;12.55;;;11.43;;
56481;SDS011;42384;45.186;19.958;2023-06-22T07:53:18;15.13;;;12.40;;
56481;SDS011;42384;45.186;19.958;2023-06-22T07:55:44;16.42;;;13.00;;
56481;SDS011;42384;45.186;19.958;2023-06-22T07:58:11;15.70;;;12.50;;
56481;SDS011;42384;45.186;19.958;2023-06-22T08:00:37;14.18;;;12.68;;
56481;SDS011;42384;45.186;19.958;2023-06-22T08:03:03;14.40;;;12.45;;
56481;SDS011;42384;45.186;19.958;2023-06-22T08:05:30;13.80;;;12.35;;
56481;SDS011;42384;45.186;19.958;2023-06-22T08:07:57;18.92;;;13.20;;
56481;SDS011;42384;45.186;19.958;2023-06-22T08:10:23;19.92;;;13.13;;
56481;SDS011;42384;45.186;19.958;2023-06-22T08:12:49;16.70;;;13.20;;
56481;SDS011;42384;45.186;19.958;2023-06-22T08:15:17;34.13;;;13.48;;
56481;SDS011;42384;45.186;19.958;2023-06-22T08:17:44;21.25;;;13.23;;
56481;SDS011;42384;45.186;19.958;2023-06-22T08:20:11;34.35;;;13.70;;
56481;SDS011;42384;45.186;19.958;2023-06-22T08:22:38;23.00;;;13.73;;
56481;SDS011;42384;45.186;19.958;2023-06-22T08:25:04;16.98;;;12.73;;
56481;SDS011;42384;45.186;19.958;2023-06-22T08:27:31;21.45;;;14.02;;
56481;SDS011;42384;45.186;19.958;2023-06-22T08:29:58;16.55;;;13.68;;
56481;SDS011;42384;45.186;19.958;2023-06-22T08:32:25;14.82;;;13.38;;
56481;SDS011;42384;45.186;19.958;2023-06-22T08:34:55;15.13;;;13.25;;
56481;SDS011;42384;45.186;19.958;2023-06-22T08:37:22;19.98;;;13.77;;
56481;SDS011;42384;45.186;19.958;2023-06-22T08:39:56;18.00;;;14.20;;
56481;SDS011;42384;45.186;19.958;2023-06-22T08:42:22;17.23;;;15.40;;
56481;SDS011;42384;45.186;19.958;2023-06-22T08:44:50;20.70;;;18.30;;
56481;SDS011;42384;45.186;19.958;2023-06-22T08:47:16;21.38;;;13.70;;
56481;SDS011;42384;45.186;19.958;2023-06-22T08:49:42;15.27;;;13.68;;
56481;SDS011;42384;45.186;19.958;2023-06-22T08:52:08;21.50;;;15.70;;
56481;SDS011;42384;45.186;19.958;2023-06-22T08:54:35;16.30;;;13.43;;
56481;SDS011;42384;45.186;19.958;2023-06-22T08:57:01;31.75;;;13.57;;
56481;SDS011;42384;45.186;19.958;2023-06-22T08:59:28;51.42;;;14.95;;
56481;SDS011;42384;45.186;19.958;2023-06-22T09:01:54;30.90;;;14.80;;
56481;SDS011;42384;45.186;19.958;2023-06-22T09:04:20;20.02;;;12.57;;
56481;SDS011;42384;45.186;19.958;2023-06-22T09:06:49;30.60;;;15.65;;
56481;SDS011;42384;45.186;19.958;2023-06-22T09:09:17;21.25;;;13.65;;
56481;SDS011;42384;45.186;19.958;2023-06-22T09:11:43;25.25;;;14.95;;
56481;SDS011;42384;45.186;19.958;2023-06-22T09:14:10;15.80;;;14.23;;
56481;SDS011;42384;45.186;19.958;2023-06-22T09:16:36;15.10;;;13.43;;
56481;SDS011;42384;45.186;19.958;2023-06-22T09:19:03;15.63;;;13.20;;
56481;SDS011;42384;45.186;19.958;2023-06-22T09:21:29;16.85;;;14.30;;
56481;SDS011;42384;45.186;19.958;2023-06-22T09:23:56;16.27;;;13.90;;
56481;SDS011;42384;45.186;19.958;2023-06-22T09:26:22;23.58;;;14.15;;
56481;SDS011;42384;45.186;19.958;2023-06-22T09:28:49;22.45;;;13.75;;
56481;SDS011;42384;45.186;19.958;2023-06-22T09:31:15;15.23;;;13.65;;
56481;SDS011;42384;45.186;19.958;2023-06-22T09:33:42;15.30;;;13.70;;
56481;SDS011;42384;45.186;19.958;2023-06-22T09:36:08;14.55;;;13.05;;
56481;SDS011;42384;45.186;19.958;2023-06-22T09:38:38;16.85;;;13.20;;
56481;SDS011;42384;45.186;19.958;2023-06-22T09:41:04;17.17;;;13.43;;
56481;SDS011;42384;45.186;19.958;2023-06-22T09:43:31;16.00;;;14.32;;
56481;SDS011;42384;45.186;19.958;2023-06-22T09:45:59;42.13;;;15.30;;
56481;SDS011;42384;45.186;19.958;2023-06-22T09:48:27;30.13;;;21.40;;
56481;SDS011;42384;45.186;19.958;2023-06-22T09:50:54;14.55;;;12.98;;
56481;SDS011;42384;45.186;19.958;2023-06-22T09:53:20;18.48;;;16.52;;
56481;SDS011;42384;45.186;19.958;2023-06-22T09:55:47;18.10;;;15.35;;
56481;SDS011;42384;45.186;19.958;2023-06-22T09:58:13;18.05;;;14.57;;
56481;SDS011;42384;45.186;19.958;2023-06-22T10:00:39;17.17;;;13.63;;
56481;SDS011;42384;45.186;19.958;2023-06-22T10:03:06;21.85;;;13.43;;
56481;SDS011;42384;45.186;19.958;2023-06-22T10:05:34;19.02;;;13.55;;
56481;SDS011;42384;45.186;19.958;2023-06-22T10:08:00;21.95;;;12.95;;
56481;SDS011;42384;45.186;19.958;2023-06-22T10:10:26;22.48;;;13.82;;
56481;SDS011;42384;45.186;19.958;2023-06-22T10:12:56;21.23;;;14.80;;
56481;SDS011;42384;45.186;19.958;2023-06-22T10:15:22;16.55;;;13.68;;
56481;SDS011;42384;45.186;19.958;2023-06-22T10:17:49;18.38;;;13.20;;
56481;SDS011;42384;45.186;19.958;2023-06-22T10:20:15;21.83;;;14.88;;
56481;SDS011;42384;45.186;19.958;2023-06-22T10:22:43;17.52;;;14.60;;
56481;SDS011;42384;45.186;19.958;2023-06-22T10:25:10;21.17;;;15.98;;
56481;SDS011;42384;45.186;19.958;2023-06-22T10:27:37;21.67;;;14.52;;
56481;SDS011;42384;45.186;19.958;2023-06-22T10:30:09;16.55;;;14.25;;
56481;SDS011;42384;45.186;19.958;2023-06-22T10:32:37;22.05;;;15.52;;
56481;SDS011;42384;45.186;19.958;2023-06-22T10:35:03;18.33;;;15.13;;
56481;SDS011;42384;45.186;19.958;2023-06-22T10:37:29;18.63;;;15.90;;
56481;SDS011;42384;45.186;19.958;2023-06-22T10:39:55;18.95;;;16.08;;
56481;SDS011;42384;45.186;19.958;2023-06-22T10:42:22;18.98;;;17.02;;
56481;SDS011;42384;45.186;19.958;2023-06-22T10:44:48;20.20;;;18.20;;
56481;SDS011;42384;45.186;19.958;2023-06-22T10:47:14;20.55;;;18.45;;
56481;SDS011;42384;45.186;19.958;2023-06-22T10:49:41;33.88;;;21.40;;
56481;SDS011;42384;45.186;19.958;2023-06-22T10:52:07;24.00;;;21.52;;
56481;SDS011;42384;45.186;19.958;2023-06-22T10:54:37;29.17;;;23.10;;
56481;SDS011;42384;45.186;19.958;2023-06-22T10:57:03;23.05;;;20.40;;
56481;SDS011;42384;45.186;19.958;2023-06-22T10:59:30;26.02;;;22.33;;
56481;SDS011;42384;45.186;19.958;2023-06-22T11:01:56;22.63;;;20.08;;
56481;SDS011;42384;45.186;19.958;2023-06-22T11:04:23;23.15;;;20.23;;
56481;SDS011;42384;45.186;19.958;2023-06-22T11:06:49;24.65;;;20.77;;
56481;SDS011;42384;45.186;19.958;2023-06-22T11:09:16;20.98;;;18.83;;
56481;SDS011;42384;45.186;19.958;2023-06-22T11:11:45;20.45;;;16.75;;
56481;SDS011;42384;45.186;19.958;2023-06-22T11:14:12;18.60;;;16.88;;
56481;SDS011;42384;45.186;19.958;2023-06-22T11:16:38;22.00;;;18.10;;
56481;SDS011;42384;45.186;19.958;2023-06-22T11:19:04;21.02;;;16.77;;
56481;SDS011;42384;45.186;19.958;2023-06-22T11:21:30;20.65;;;17.90;;
56481;SDS011;42384;45.186;19.958;2023-06-22T11:23:57;23.30;;;18.00;;
56481;SDS011;42384;45.186;19.958;2023-06-22T11:26:24;22.20;;;17.13;;
56481;SDS011;42384;45.186;19.958;2023-06-22T11:28:52;21.20;;;16.88;;
56481;SDS011;42384;45.186;19.958;2023-06-22T11:31:18;16.80;;;15.18;;
56481;SDS011;42384;45.186;19.958;2023-06-22T11:33:44;22.73;;;15.60;;
56481;SDS011;42384;45.186;19.958;2023-06-22T11:36:13;20.67;;;16.23;;
56481;SDS011;42384;45.186;19.958;2023-06-22T11:38:40;19.20;;;15.00;;
56481;SDS011;42384;45.186;19.958;2023-06-22T11:41:07;22.65;;;14.93;;
56481;SDS011;42384;45.186;19.958;2023-06-22T11:43:34;20.27;;;14.85;;
56481;SDS011;42384;45.186;19.958;2023-06-22T11:46:01;29.05;;;14.25;;
56481;SDS011;42384;45.186;19.958;2023-06-22T11:48:28;16.80;;;13.63;;
56481;SDS011;42384;45.186;19.958;2023-06-22T11:50:54;15.73;;;14.25;;
56481;SDS011;42384;45.186;19.958;2023-06-22T11:53:21;28.70;;;14.77;;
56481;SDS011;42384;45.186;19.958;2023-06-22T11:55:47;17.70;;;13.38;;
56481;SDS011;42384;45.186;19.958;2023-06-22T11:58:14;23.25;;;13.65;;
56481;SDS011;42384;45.186;19.958;2023-06-22T12:00:40;23.50;;;13.55;;
56481;SDS011;42384;45.186;19.958;2023-06-22T12:03:07;25.48;;;16.58;;
56481;SDS011;42384;45.186;19.958;2023-06-22T12:05:33;25.52;;;15.63;;
56481;SDS011;42384;45.186;19.958;2023-06-22T12:07:59;24.25;;;17.02;;
56481;SDS011;42384;45.186;19.958;2023-06-22T12:10:25;17.95;;;15.20;;
56481;SDS011;42384;45.186;19.958;2023-06-22T12:12:53;16.85;;;14.73;;
56481;SDS011;42384;45.186;19.958;2023-06-22T12:15:20;15.88;;;14.20;;
56481;SDS011;42384;45.186;19.958;2023-06-22T12:17:46;14.90;;;13.45;;
56481;SDS011;42384;45.186;19.958;2023-06-22T12:20:13;16.15;;;14.55;;
56481;SDS011;42384;45.186;19.958;2023-06-22T12:22:40;22.00;;;17.45;;
56481;SDS011;42384;45.186;19.958;2023-06-22T12:25:06;18.77;;;16.90;;
56481;SDS011;42384;45.186;19.958;2023-06-22T12:27:33;18.17;;;16.38;;
56481;SDS011;42384;45.186;19.958;2023-06-22T12:29:59;17.52;;;15.88;;
56481;SDS011;42384;45.186;19.958;2023-06-22T12:32:25;19.10;;;14.93;;
56481;SDS011;42384;45.186;19.958;2023-06-22T12:34:51;18.42;;;14.82;;
56481;SDS011;42384;45.186;19.958;2023-06-22T12:37:17;27.17;;;23.08;;
56481;SDS011;42384;45.186;19.958;2023-06-22T12:39:44;18.23;;;16.42;;
56481;SDS011;42384;45.186;19.958;2023-06-22T12:42:10;19.45;;;15.00;;
56481;SDS011;42384;45.186;19.958;2023-06-22T12:44:40;16.75;;;14.98;;
56481;SDS011;42384;45.186;19.958;2023-06-22T12:47:06;20.40;;;16.45;;
56481;SDS011;42384;45.186;19.958;2023-06-22T12:49:34;16.83;;;14.07;;
56481;SDS011;42384;45.186;19.958;2023-06-22T12:52:00;18.45;;;16.08;;
56481;SDS011;42384;45.186;19.958;2023-06-22T12:54:26;18.52;;;16.02;;
56481;SDS011;42384;45.186;19.958;2023-06-22T12:56:54;20.52;;;16.77;;
56481;SDS011;42384;45.186;19.958;2023-06-22T12:59:20;19.23;;;17.25;;
56481;SDS011;42384;45.186;19.958;2023-06-22T13:01:46;17.85;;;14.88;;
56481;SDS011;42384;45.186;19.958;2023-06-22T13:04:13;14.68;;;13.48;;
56481;SDS011;42384;45.186;19.958;2023-06-22T13:06:43;18.23;;;15.82;;
56481;SDS011;42384;45.186;19.958;2023-06-22T13:09:13;17.05;;;15.32;;
56481;SDS011;42384;45.186;19.958;2023-06-22T13:11:39;18.63;;;16.92;;
56481;SDS011;42384;45.186;19.958;2023-06-22T13:14:05;16.75;;;15.02;;
56481;SDS011;42384;45.186;19.958;2023-06-22T13:16:31;16.42;;;14.73;;
56481;SDS011;42384;45.186;19.958;2023-06-22T13:18:57;23.45;;;21.17;;
56481;SDS011;42384;45.186;19.958;2023-06-22T13:21:23;19.10;;;17.27;;
56481;SDS011;42384;45.186;19.958;2023-06-22T13:23:50;21.88;;;19.90;;
56481;SDS011;42384;45.186;19.958;2023-06-22T13:26:16;19.23;;;17.00;;
56481;SDS011;42384;45.186;19.958;2023-06-22T13:28:42;16.30;;;13.32;;
56481;SDS011;42384;45.186;19.958;2023-06-22T13:31:08;15.43;;;13.70;;
56481;SDS011;42384;45.186;19.958;2023-06-22T13:33:34;15.43;;;14.02;;
56481;SDS011;42384;45.186;19.958;2023-06-22T13:36:00;20.50;;;13.75;;
56481;SDS011;42384;45.186;19.958;2023-06-22T13:38:28;21.42;;;15.68;;
56481;SDS011;42384;45.186;19.958;2023-06-22T13:40:56;17.75;;;14.75;;
56481;SDS011;42384;45.186;19.958;2023-06-22T13:43:24;18.05;;;14.38;;
56481;SDS011;42384;45.186;19.958;2023-06-22T13:45:50;17.85;;;13.82;;
56481;SDS011;42384;45.186;19.958;2023-06-22T13:48:16;15.35;;;13.40;;
56481;SDS011;42384;45.186;19.958;2023-06-22T13:50:43;21.60;;;14.30;;
56481;SDS011;42384;45.186;19.958;2023-06-22T13:53:09;14.80;;;12.90;;
56481;SDS011;42384;45.186;19.958;2023-06-22T13:55:35;15.13;;;13.23;;
56481;SDS011;42384;45.186;19.958;2023-06-22T13:58:01;15.70;;;14.07;;
56481;SDS011;42384;45.186;19.958;2023-06-22T14:00:27;13.05;;;11.80;;
56481;SDS011;42384;45.186;19.958;2023-06-22T14:02:54;20.02;;;12.77;;
56481;SDS011;42384;45.186;19.958;2023-06-22T14:05:20;15.15;;;12.90;;
56481;SDS011;42384;45.186;19.958;2023-06-22T14:07:46;19.50;;;13.05;;
56481;SDS011;42384;45.186;19.958;2023-06-22T14:10:12;23.35;;;13.48;;
56481;SDS011;42384;45.186;19.958;2023-06-22T14:12:38;22.90;;;12.88;;
56481;SDS011;42384;45.186;19.958;2023-06-22T14:15:04;19.15;;;12.45;;
56481;SDS011;42384;45.186;19.958;2023-06-22T14:17:31;18.48;;;12.88;;
56481;SDS011;42384;45.186;19.958;2023-06-22T14:19:57;15.93;;;12.30;;
56481;SDS011;42384;45.186;19.958;2023-06-22T14:22:23;16.08;;;12.57;;
56481;SDS011;42384;45.186;19.958;2023-06-22T14:24:50;17.67;;;11.73;;
56481;SDS011;42384;45.186;19.958;2023-06-22T14:27:17;17.17;;;11.40;;
56481;SDS011;42384;45.186;19.958;2023-06-22T14:29:43;23.90;;;12.68;;
56481;SDS011;42384;45.186;19.958;2023-06-22T14:32:09;17.50;;;11.98;;
56481;SDS011;42384;45.186;19.958;2023-06-22T14:34:35;19.23;;;11.90;;
56481;SDS011;42384;45.186;19.958;2023-06-22T14:37:05;20.55;;;12.55;;
56481;SDS011;42384;45.186;19.958;2023-06-22T14:39:31;19.83;;;12.32;;
56481;SDS011;42384;45.186;19.958;2023-06-22T14:41:57;25.25;;;12.50;;